KLRO/LRO METAR and TAF weather

Enter ICAO airport designator
Station Type Date Time Source
KLRO METAR 2020/03/28 14:35 UTC NOAA

KLRO 281435Z AUTO 00000KT 9SM CLR 25/20 A3003 RMK AO2


Station Type Date Time Source
KLRO Decoded METAR 2020/03/28 14:35 UTC NOAA

Station name not available
Mar 28, 2020 - 10:35 AM EDT / 2020.03.28 1435 UTC
Wind: Calm:0
Visibility: 9 mile(s):0
Sky conditions: clear
Temperature: 77 F (25 C)
Dew Point: 68 F (20 C)
Relative Humidity: 73%
Pressure (altimeter): 30.03 in. Hg (1016 hPa)
ob: KLRO 281435Z AUTO 00000KT 9SM CLR 25/20 A3003 RMK AO2
cycle: 14

Station Type Date Time Source
KLRO TAF UTC NOAA

Error!

Example: see airport list